createdAt,value
2023-05-03T00:00:41.748Z,100487.16
2023-05-03T00:03:08.755Z,100490.78
2023-05-03T00:05:36.050Z,100485.59
2023-05-03T00:08:03.661Z,100481.13
2023-05-03T00:10:30.674Z,100475.97
2023-05-03T00:12:57.564Z,100481.56
2023-05-03T00:15:24.515Z,100481.19
2023-05-03T00:17:51.804Z,100480.78
2023-05-03T00:20:19.562Z,100473.56
2023-05-03T00:22:47.368Z,100484.00
2023-05-03T00:25:15.418Z,100477.59
2023-05-03T00:27:43.737Z,100473.97
2023-05-03T00:30:11.394Z,100474.41
2023-05-03T00:32:38.335Z,100479.00
2023-05-03T00:35:05.800Z,100480.59
2023-05-03T00:37:33.101Z,100475.22
2023-05-03T00:39:59.998Z,100474.38
2023-05-03T00:42:27.505Z,100475.59
2023-05-03T00:44:56.449Z,100470.38
2023-05-03T00:47:26.212Z,100469.16
2023-05-03T00:49:53.426Z,100472.78
2023-05-03T00:52:21.449Z,100468.56
2023-05-03T00:54:48.884Z,100469.59
2023-05-03T00:57:15.932Z,100467.56
2023-05-03T00:59:43.563Z,100469.22
2023-05-03T01:02:10.660Z,100479.00
2023-05-03T01:04:37.965Z,100470.81
2023-05-03T01:07:38.203Z,100469.22
2023-05-03T01:10:23.634Z,100462.59
2023-05-03T01:13:11.871Z,100467.22
2023-05-03T01:15:57.713Z,100462.81
2023-05-03T01:18:34.419Z,100463.59
2023-05-03T01:21:02.713Z,100462.81
2023-05-03T01:23:53.328Z,100457.00
2023-05-03T01:26:21.893Z,100464.38
2023-05-03T01:28:48.965Z,100465.41
2023-05-03T01:31:53.763Z,100452.75
2023-05-03T01:34:26.720Z,100458.78
2023-05-03T01:36:58.676Z,100455.38
2023-05-03T01:39:31.241Z,100448.34
2023-05-03T01:42:02.303Z,100447.53
2023-05-03T01:44:31.769Z,100455.34
2023-05-03T01:46:58.660Z,100455.16
2023-05-03T01:49:25.566Z,100455.97
2023-05-03T01:51:52.399Z,100448.34
2023-05-03T01:54:19.198Z,100438.75
2023-05-03T01:56:47.104Z,100453.56
2023-05-03T01:59:15.739Z,100453.16
2023-05-03T02:01:42.911Z,100439.38
2023-05-03T02:04:10.903Z,100445.56
2023-05-03T02:06:37.999Z,100447.16
2023-05-03T02:09:04.982Z,100441.53
2023-05-03T02:11:32.345Z,100439.53
2023-05-03T02:13:59.251Z,100442.31
2023-05-03T02:16:26.515Z,100433.16
2023-05-03T02:18:54.528Z,100438.75
2023-05-03T02:21:21.401Z,100430.34
2023-05-03T02:23:48.328Z,100441.34
2023-05-03T02:26:15.369Z,100435.53
2023-05-03T02:28:42.907Z,100436.53
2023-05-03T02:31:09.846Z,100438.38
2023-05-03T02:33:38.746Z,100433.16
2023-05-03T02:36:06.085Z,100440.72
2023-05-03T02:38:37.155Z,100438.13
2023-05-03T02:41:04.069Z,100432.72
2023-05-03T02:43:31.088Z,100428.34
2023-05-03T02:45:58.823Z,100421.13
2023-05-03T02:48:27.209Z,100428.16
2023-05-03T02:50:55.511Z,100437.13
2023-05-03T02:53:23.073Z,100428.34
2023-05-03T02:55:52.013Z,100422.50
2023-05-03T02:58:18.958Z,100430.72
2023-05-03T03:00:48.719Z,100441.53
2023-05-03T03:03:16.108Z,100427.13
2023-05-03T03:05:43.015Z,100436.94
2023-05-03T03:08:09.963Z,100427.31
2023-05-03T03:10:37.849Z,100430.50
2023-05-03T03:13:05.165Z,100428.66
2023-05-03T03:15:37.209Z,100430.28
2023-05-03T03:18:06.085Z,100438.09
2023-05-03T03:20:35.463Z,100431.09
2023-05-03T03:23:03.730Z,100430.28
2023-05-03T03:25:31.816Z,100431.88
2023-05-03T03:27:59.313Z,100430.88
2023-05-03T03:30:26.572Z,100432.06
2023-05-03T03:33:07.022Z,100442.28
2023-05-03T03:35:40.292Z,100436.69
2023-05-03T03:38:09.115Z,100435.09
2023-05-03T03:40:43.069Z,100445.50
2023-05-03T03:43:10.354Z,100431.53
2023-05-03T03:45:38.463Z,100437.31
2023-05-03T03:48:07.386Z,100442.13
2023-05-03T03:50:34.520Z,100441.94
2023-05-03T03:53:01.898Z,100441.34
2023-05-03T03:55:29.124Z,100456.34
2023-05-03T03:57:58.533Z,100451.53
2023-05-03T04:00:27.498Z,100452.53
2023-05-03T04:03:07.229Z,100453.94
2023-05-03T04:05:35.182Z,100458.94
2023-05-03T04:08:02.541Z,100469.34
2023-05-03T04:10:31.923Z,100475.19
2023-05-03T04:12:59.215Z,100461.97
2023-05-03T04:15:26.839Z,100477.19
2023-05-03T04:17:57.734Z,100471.38
2023-05-03T04:20:25.208Z,100482.00
2023-05-03T04:22:52.945Z,100478.81
2023-05-03T04:25:25.803Z,100486.81
2023-05-03T04:28:01.041Z,100486.63
2023-05-03T04:30:32.548Z,100489.22
2023-05-03T04:33:01.457Z,100492.81
2023-05-03T04:35:30.793Z,100493.03
2023-05-03T04:38:03.261Z,100486.81
2023-05-03T04:40:31.987Z,100491.63
2023-05-03T04:43:06.363Z,100497.44
2023-05-03T04:45:37.347Z,100497.03
2023-05-03T04:48:06.160Z,100502.06
2023-05-03T04:50:34.872Z,100495.22
2023-05-03T04:53:03.384Z,100506.84
2023-05-03T04:55:33.440Z,100499.81
2023-05-03T04:58:02.160Z,100504.03
2023-05-03T05:00:29.368Z,100509.06
2023-05-03T05:03:02.063Z,100512.06
2023-05-03T05:05:31.099Z,100510.06
2023-05-03T05:08:00.029Z,100513.66
2023-05-03T05:10:33.609Z,100515.66
2023-05-03T05:13:00.901Z,100522.84
2023-05-03T05:15:28.595Z,100519.69
2023-05-03T05:17:57.826Z,100515.66
2023-05-03T05:20:25.811Z,100523.09
2023-05-03T05:22:53.354Z,100519.66
2023-05-03T05:25:20.438Z,100523.66
2023-05-03T05:27:49.204Z,100527.84
2023-05-03T05:30:16.761Z,100530.88
2023-05-03T05:32:44.381Z,100536.31
2023-05-03T05:35:13.705Z,100531.88
2023-05-03T05:37:41.416Z,100531.47
2023-05-03T05:40:09.524Z,100541.09
2023-05-03T05:42:42.379Z,100544.28
2023-05-03T05:45:10.129Z,100554.91
2023-05-03T05:47:39.018Z,100549.72
2023-05-03T05:50:16.738Z,100548.72
2023-05-03T05:52:55.165Z,100557.75
2023-05-03T05:55:24.205Z,100561.75
2023-05-03T05:57:51.839Z,100565.34
2023-05-03T06:00:22.975Z,100562.75
2023-05-03T06:02:53.348Z,100570.19
2023-05-03T06:05:22.548Z,100574.59
2023-05-03T06:07:54.446Z,100572.38
2023-05-03T06:10:21.439Z,100570.97
2023-05-03T06:12:52.570Z,100575.78
2023-05-03T06:15:24.945Z,100578.75
2023-05-03T06:17:52.954Z,100576.69
2023-05-03T06:20:21.508Z,100586.53
2023-05-03T06:22:51.324Z,100589.72
2023-05-03T06:25:19.470Z,100591.56
2023-05-03T06:27:49.951Z,100576.31
2023-05-03T06:30:19.560Z,100585.75
2023-05-03T06:32:49.024Z,100589.28
2023-05-03T06:35:18.580Z,100589.94
2023-05-03T06:37:46.531Z,100600.84
2023-05-03T06:40:14.226Z,100591.81
2023-05-03T06:42:41.461Z,100600.28
2023-05-03T06:45:15.998Z,100601.06
2023-05-03T06:47:45.374Z,100605.94
2023-05-03T06:50:12.441Z,100602.50
2023-05-03T06:52:39.388Z,100607.91
2023-05-03T06:55:07.183Z,100606.25
2023-05-03T06:57:35.096Z,100601.97
2023-05-03T07:00:02.145Z,100611.25
2023-05-03T07:02:31.556Z,100611.13
2023-05-03T07:04:58.650Z,100609.69
2023-05-03T07:07:25.823Z,100605.59
2023-05-03T07:09:52.700Z,100612.88
2023-05-03T07:12:27.578Z,100612.78
2023-05-03T07:14:55.335Z,100616.47
2023-05-03T07:17:23.173Z,100618.63
2023-05-03T07:19:51.585Z,100616.84
2023-05-03T07:22:21.384Z,100622.19
2023-05-03T07:24:48.420Z,100621.63
2023-05-03T07:27:16.176Z,100618.63
2023-05-03T07:29:43.082Z,100621.13
2023-05-03T07:32:10.662Z,100627.13
2023-05-03T07:34:37.523Z,100636.06
2023-05-03T07:37:05.476Z,100633.06
2023-05-03T07:39:32.300Z,100634.75
2023-05-03T07:42:00.188Z,100637.72
2023-05-03T07:44:27.015Z,100636.31
2023-05-03T07:46:53.914Z,100633.34
2023-05-03T07:49:21.061Z,100638.28
2023-05-03T07:51:47.950Z,100634.78
2023-05-03T07:54:14.906Z,100636.72
2023-05-03T07:56:41.734Z,100638.88
2023-05-03T07:59:10.595Z,100643.03
2023-05-03T08:01:38.032Z,100638.66
2023-05-03T08:04:05.506Z,100647.53
2023-05-03T08:06:35.688Z,100642.13
2023-05-03T08:09:04.521Z,100653.56
2023-05-03T08:11:31.868Z,100645.47
2023-05-03T08:13:59.139Z,100647.88
2023-05-03T08:16:26.285Z,100645.59
2023-05-03T08:18:53.127Z,100644.41
2023-05-03T08:21:20.278Z,100644.91
2023-05-03T08:23:47.106Z,100650.88
2023-05-03T08:26:14.731Z,100650.13
2023-05-03T08:28:42.512Z,100655.63
2023-05-03T08:31:09.904Z,100663.75
2023-05-03T08:33:37.001Z,100662.31
2023-05-03T08:36:04.117Z,100658.25
2023-05-03T08:38:32.094Z,100658.81
2023-05-03T08:41:05.118Z,100660.19
2023-05-03T08:43:36.619Z,100671.69
2023-05-03T08:46:03.745Z,100673.00
2023-05-03T08:48:31.358Z,100669.88
2023-05-03T08:51:00.201Z,100660.28
2023-05-03T08:53:27.077Z,100667.91
2023-05-03T08:55:53.994Z,100666.00
2023-05-03T08:58:21.129Z,100662.56
2023-05-03T09:00:47.976Z,100660.19
2023-05-03T09:03:14.919Z,100662.94
2023-05-03T09:05:44.254Z,100663.50
2023-05-03T09:08:13.633Z,100664.06
2023-05-03T09:10:42.101Z,100656.25
2023-05-03T09:13:13.994Z,100645.56
2023-05-03T09:15:40.900Z,100637.47
2023-05-03T09:18:18.971Z,100639.75
2023-05-03T09:20:53.549Z,100640.75
2023-05-03T09:23:26.567Z,100641.28
2023-05-03T09:25:55.287Z,100636.44
2023-05-03T09:28:22.447Z,100645.19
2023-05-03T09:30:50.569Z,100644.06
2023-05-03T09:33:28.634Z,100648.88
2023-05-03T09:36:00.858Z,100642.28
2023-05-03T09:38:30.093Z,100647.59
2023-05-03T09:40:57.752Z,100654.00
2023-05-03T09:43:25.255Z,100646.25
2023-05-03T09:45:52.131Z,100646.75
2023-05-03T09:48:23.624Z,100651.09
2023-05-03T09:50:51.300Z,100656.16
2023-05-03T09:53:21.528Z,100645.56
2023-05-03T09:55:50.861Z,100652.81
2023-05-03T09:58:20.735Z,100638.84
2023-05-03T10:00:52.636Z,100651.50
2023-05-03T10:03:29.575Z,100640.66
2023-05-03T10:05:58.724Z,100648.50
2023-05-03T10:08:31.953Z,100642.50
2023-05-03T10:10:58.934Z,100635.22
2023-05-03T10:13:26.036Z,100639.25
2023-05-03T10:16:25.053Z,100632.41
2023-05-03T10:19:08.313Z,100639.97
2023-05-03T10:21:53.519Z,100631.75
2023-05-03T10:24:20.428Z,100626.56
2023-05-03T10:26:49.777Z,100630.25
2023-05-03T10:29:31.657Z,100631.81
2023-05-03T10:31:59.265Z,100633.19
2023-05-03T10:34:33.172Z,100624.50
2023-05-03T10:37:03.563Z,100633.81
2023-05-03T10:39:31.936Z,100638.09
2023-05-03T10:42:03.136Z,100635.78
2023-05-03T10:44:53.772Z,100639.22
2023-05-03T10:47:26.597Z,100631.66
2023-05-03T10:50:12.186Z,100640.28
2023-05-03T10:52:39.293Z,100640.19
2023-05-03T10:55:26.922Z,100638.63
2023-05-03T10:57:56.370Z,100640.03
2023-05-03T11:00:33.393Z,100633.78
2023-05-03T11:03:12.860Z,100643.16
2023-05-03T11:05:40.276Z,100642.47
2023-05-03T11:08:19.845Z,100639.91
2023-05-03T11:10:50.212Z,100637.09
2023-05-03T11:13:19.014Z,100639.81
2023-05-03T11:15:48.225Z,100636.69
2023-05-03T11:18:15.247Z,100641.66
2023-05-03T11:20:42.351Z,100645.00
2023-05-03T11:23:09.181Z,100643.94
2023-05-03T11:25:36.148Z,100649.59
2023-05-03T11:28:07.187Z,100643.97
2023-05-03T11:30:36.058Z,100640.88
2023-05-03T11:33:03.589Z,100640.75
2023-05-03T11:35:32.004Z,100648.50
2023-05-03T11:37:59.027Z,100642.91
2023-05-03T11:40:26.419Z,100643.91
2023-05-03T11:42:58.962Z,100638.53
2023-05-03T11:45:47.702Z,100643.78
2023-05-03T11:48:16.480Z,100640.44
2023-05-03T11:50:51.377Z,100637.97
2023-05-03T11:53:19.507Z,100641.69
2023-05-03T11:55:53.239Z,100640.88
2023-05-03T11:58:25.003Z,100636.69
2023-05-03T12:00:54.158Z,100639.75
2023-05-03T12:03:23.209Z,100638.50
2023-05-03T12:05:56.349Z,100646.00
2023-05-03T12:08:36.699Z,100644.78
2023-05-03T12:11:06.839Z,100650.53
2023-05-03T12:13:39.580Z,100640.31
2023-05-03T12:18:50.476Z,100649.59
2023-05-03T12:23:55.520Z,100646.00
2023-05-03T12:26:23.438Z,100647.19
2023-05-03T12:28:50.596Z,100644.63
2023-05-03T12:31:18.502Z,100645.31
2023-05-03T12:33:58.569Z,100650.09
2023-05-03T12:36:36.843Z,100650.97
2023-05-03T12:39:09.194Z,100647.34
2023-05-03T12:44:10.208Z,100643.25
2023-05-03T12:46:39.100Z,100639.38
2023-05-03T12:49:08.216Z,100641.84
2023-05-03T12:51:35.774Z,100635.41
2023-05-03T12:54:04.130Z,100641.00
2023-05-03T12:56:33.314Z,100633.28
2023-05-03T13:06:31.021Z,100630.75
2023-05-03T13:09:02.798Z,100631.06
2023-05-03T13:11:31.218Z,100632.38
2023-05-03T13:13:58.175Z,100626.00
2023-05-03T13:16:26.448Z,100625.69
2023-05-03T13:18:55.325Z,100616.34
2023-05-03T13:21:22.562Z,100619.78
2023-05-03T13:23:49.689Z,100624.56
2023-05-03T13:26:16.506Z,100616.00
2023-05-03T13:28:43.360Z,100617.22
2023-05-03T13:31:11.819Z,100616.41
2023-05-03T13:33:38.877Z,100615.19
2023-05-03T13:36:06.013Z,100605.59
2023-05-03T13:38:33.926Z,100601.94
2023-05-03T13:41:00.761Z,100613.97
2023-05-03T13:43:27.666Z,100613.28
2023-05-03T13:46:02.080Z,100605.63
2023-05-03T13:48:31.698Z,100605.94
2023-05-03T13:50:59.253Z,100600.00
2023-05-03T13:53:26.649Z,100599.53
2023-05-03T13:55:53.682Z,100604.25
2023-05-03T13:58:20.430Z,100596.03
2023-05-03T14:00:47.327Z,100591.19
2023-05-03T14:03:14.555Z,100594.75
2023-05-03T14:05:41.501Z,100597.34
2023-05-03T14:08:08.291Z,100594.63
2023-05-03T14:10:38.121Z,100594.03
2023-05-03T14:13:05.220Z,100596.13
2023-05-03T14:15:34.422Z,100593.50
2023-05-03T14:18:03.876Z,100588.47
2023-05-03T14:20:36.144Z,100590.88
2023-05-03T14:23:03.920Z,100597.81
2023-05-03T14:25:31.395Z,100601.94
2023-05-03T14:27:58.343Z,100611.69
2023-05-03T14:30:25.218Z,100604.03
2023-05-03T14:32:52.598Z,100607.91
2023-05-03T14:35:20.278Z,100601.69
2023-05-03T14:37:47.471Z,100599.69
2023-05-03T14:40:14.491Z,100599.69
2023-05-03T14:42:41.508Z,100600.63
2023-05-03T14:45:10.914Z,100597.44
2023-05-03T14:47:39.540Z,100601.47
2023-05-03T14:50:07.082Z,100592.81
2023-05-03T14:52:35.458Z,100604.09
2023-05-03T14:55:03.275Z,100599.97
2023-05-03T14:57:32.038Z,100601.00
2023-05-03T15:00:00.206Z,100596.53
2023-05-03T15:02:27.368Z,100601.41
2023-05-03T15:04:54.381Z,100602.44
2023-05-03T15:07:21.304Z,100601.28
2023-05-03T15:09:48.101Z,100610.31
2023-05-03T15:12:15.016Z,100592.84
2023-05-03T15:14:42.496Z,100614.63
2023-05-03T15:17:09.380Z,100603.25
2023-05-03T15:19:36.425Z,100601.97
2023-05-03T15:22:03.448Z,100590.41
2023-05-03T15:24:30.388Z,100607.47
2023-05-03T15:26:57.238Z,100608.72
2023-05-03T15:29:25.178Z,100605.34
2023-05-03T15:31:52.022Z,100598.00
2023-05-03T15:34:19.373Z,100591.34
2023-05-03T15:36:46.423Z,100598.88
2023-05-03T15:39:13.375Z,100600.50
2023-05-03T15:41:40.373Z,100603.94
2023-05-03T15:44:09.813Z,100612.19
2023-05-03T15:46:37.150Z,100599.69
2023-05-03T15:49:04.965Z,100605.75
2023-05-03T15:51:32.090Z,100599.75
2023-05-03T15:53:59.398Z,100595.31
2023-05-03T15:56:27.769Z,100600.66
2023-05-03T15:58:54.867Z,100599.22
2023-05-03T16:01:25.236Z,100598.44
2023-05-03T16:03:53.073Z,100595.81
2023-05-03T16:06:20.002Z,100591.59
2023-05-03T16:08:46.813Z,100596.03
2023-05-03T16:11:13.665Z,100598.06
2023-05-03T16:13:40.554Z,100600.56
2023-05-03T16:16:07.606Z,100598.06
2023-05-03T16:18:34.749Z,100595.84
2023-05-03T16:21:02.725Z,100592.88
2023-05-03T16:23:29.843Z,100599.44
2023-05-03T16:25:56.773Z,100595.63
2023-05-03T16:28:23.891Z,100592.59
2023-05-03T16:30:50.641Z,100598.66
2023-05-03T16:33:18.081Z,100594.91
2023-05-03T16:35:44.945Z,100593.66
2023-05-03T16:38:11.810Z,100583.03
2023-05-03T16:40:40.649Z,100591.16
2023-05-03T16:43:07.749Z,100592.28
2023-05-03T16:45:34.774Z,100591.25
2023-05-03T16:48:04.760Z,100590.47
2023-05-03T16:50:32.984Z,100591.81
2023-05-03T16:52:59.753Z,100585.47
2023-05-03T16:55:26.591Z,100595.25
2023-05-03T16:57:53.419Z,100599.59
2023-05-03T17:00:20.955Z,100596.16
2023-05-03T17:02:47.897Z,100596.06
2023-05-03T17:05:15.412Z,100592.84
2023-05-03T17:07:42.470Z,100598.34
2023-05-03T17:10:09.822Z,100588.50
2023-05-03T17:12:36.990Z,100593.88
2023-05-03T17:15:04.412Z,100596.56
2023-05-03T17:17:33.021Z,100598.16
2023-05-03T17:19:59.980Z,100588.78
2023-05-03T17:22:28.042Z,100598.81
2023-05-03T17:24:56.889Z,100599.69
2023-05-03T17:27:24.476Z,100602.59
2023-05-03T17:29:51.750Z,100603.78
2023-05-03T17:32:18.503Z,100609.50
2023-05-03T17:34:45.324Z,100608.22
2023-05-03T17:37:12.089Z,100603.84
2023-05-03T17:39:39.379Z,100609.50
2023-05-03T17:42:06.552Z,100612.31
2023-05-03T17:44:33.603Z,100611.13
2023-05-03T17:47:05.174Z,100604.66
2023-05-03T17:49:35.121Z,100607.19
2023-05-03T17:52:07.264Z,100616.06
2023-05-03T17:54:35.166Z,100616.00
2023-05-03T17:57:08.816Z,100614.25
2023-05-03T17:59:36.693Z,100613.53
2023-05-03T18:02:03.735Z,100615.03
2023-05-03T18:04:32.176Z,100615.66
2023-05-03T18:06:59.050Z,100613.72
2023-05-03T18:09:27.194Z,100628.28
2023-05-03T18:11:56.566Z,100622.69
2023-05-03T18:14:23.434Z,100632.56
2023-05-03T18:16:51.111Z,100642.41
2023-05-03T18:19:19.422Z,100641.22
2023-05-03T18:21:46.275Z,100649.88
2023-05-03T18:24:13.159Z,100642.53
2023-05-03T18:26:39.954Z,100649.78
2023-05-03T18:29:10.168Z,100649.19
2023-05-03T18:31:37.175Z,100658.63
2023-05-03T18:34:04.024Z,100655.84
2023-05-03T18:36:31.413Z,100656.66
2023-05-03T18:38:58.235Z,100655.50
2023-05-03T18:41:25.292Z,100662.31
2023-05-03T18:43:52.382Z,100668.97
2023-05-03T18:46:20.075Z,100662.78
2023-05-03T18:48:47.968Z,100670.97
2023-05-03T18:51:15.058Z,100679.66
2023-05-03T18:53:43.544Z,100677.03
2023-05-03T18:56:10.560Z,100687.28
2023-05-03T18:58:37.365Z,100688.50
2023-05-03T19:01:05.858Z,100688.69
2023-05-03T19:03:33.447Z,100684.28
2023-05-03T19:06:07.385Z,100692.28
2023-05-03T19:08:34.827Z,100689.69
2023-05-03T19:11:12.885Z,100700.09
2023-05-03T19:13:40.289Z,100694.50
2023-05-03T19:16:07.266Z,100694.91
2023-05-03T19:18:37.205Z,100698.94
2023-05-03T19:21:04.979Z,100697.09
2023-05-03T19:23:32.680Z,100700.09
2023-05-03T19:25:59.796Z,100700.53
2023-05-03T19:28:26.808Z,100697.69
2023-05-03T19:30:54.304Z,100701.31
2023-05-03T19:33:21.952Z,100704.50
2023-05-03T19:35:48.923Z,100703.47
2023-05-03T19:38:15.972Z,100704.50
2023-05-03T19:40:54.637Z,100704.06
2023-05-03T19:43:21.502Z,100699.66
2023-05-03T19:45:49.134Z,100703.22
2023-05-03T19:48:16.662Z,100704.84
2023-05-03T19:50:45.074Z,100703.22
2023-05-03T19:53:12.109Z,100702.00
2023-05-03T19:55:38.884Z,100696.00
2023-05-03T19:58:08.292Z,100696.00
2023-05-03T20:00:35.215Z,100696.78
2023-05-03T20:03:02.163Z,100686.97
2023-05-03T20:05:29.090Z,100692.38
2023-05-03T20:07:56.043Z,100686.56
2023-05-03T20:10:22.946Z,100688.19
2023-05-03T20:12:49.796Z,100682.38
2023-05-03T20:15:16.683Z,100689.94
2023-05-03T20:17:43.543Z,100689.16
2023-05-03T20:20:14.762Z,100679.53
2023-05-03T20:22:41.560Z,100678.94
2023-05-03T20:25:09.480Z,100681.13
2023-05-03T20:27:36.394Z,100674.72
2023-05-03T20:30:05.943Z,100681.91
2023-05-03T20:32:33.374Z,100678.91
2023-05-03T20:35:00.406Z,100676.69
2023-05-03T20:37:28.652Z,100679.06
2023-05-03T20:39:55.429Z,100677.84
2023-05-03T20:42:22.262Z,100686.25
2023-05-03T20:44:51.975Z,100687.06
2023-05-03T20:47:19.434Z,100682.84
2023-05-03T20:49:46.962Z,100674.03
2023-05-03T20:52:14.005Z,100681.84
2023-05-03T20:54:44.389Z,100683.22
2023-05-03T20:57:13.799Z,100687.81
2023-05-03T20:59:43.560Z,100691.03
2023-05-03T21:02:16.036Z,100687.00
2023-05-03T21:04:43.131Z,100683.22
2023-05-03T21:07:10.172Z,100679.63
2023-05-03T21:09:37.405Z,100684.00
2023-05-03T21:12:04.438Z,100683.41
2023-05-03T21:14:31.443Z,100680.94
2023-05-03T21:16:58.339Z,100673.13
2023-05-03T21:19:28.334Z,100677.34
2023-05-03T21:21:55.100Z,100671.28
2023-05-03T21:24:24.821Z,100673.28
2023-05-03T21:26:51.585Z,100664.91
2023-05-03T21:29:18.463Z,100665.88
2023-05-03T21:31:47.853Z,100663.03
2023-05-03T21:34:14.896Z,100662.41
2023-05-03T21:36:41.903Z,100660.41
2023-05-03T21:39:10.424Z,100661.22
2023-05-03T21:41:37.235Z,100662.78
2023-05-03T21:44:04.057Z,100666.41
2023-05-03T21:46:33.535Z,100664.81
2023-05-03T21:49:00.471Z,100665.16
2023-05-03T21:51:27.457Z,100671.97
2023-05-03T21:53:55.270Z,100675.53
2023-05-03T21:56:22.919Z,100676.53
2023-05-03T21:58:49.816Z,100669.91
2023-05-03T22:01:21.654Z,100675.72
2023-05-03T22:03:53.137Z,100677.72
2023-05-03T22:06:20.235Z,100675.72
2023-05-03T22:08:47.758Z,100673.25
2023-05-03T22:11:14.558Z,100680.47
2023-05-03T22:13:54.562Z,100673.66
2023-05-03T22:16:26.540Z,100672.38
2023-05-03T22:18:53.473Z,100669.78
2023-05-03T22:21:20.351Z,100667.81
2023-05-03T22:23:47.155Z,100663.75
2023-05-03T22:26:13.996Z,100657.94
2023-05-03T22:28:40.840Z,100659.53
2023-05-03T22:31:07.672Z,100662.75
2023-05-03T22:33:34.562Z,100669.72
2023-05-03T22:36:01.401Z,100667.78
2023-05-03T22:38:28.669Z,100661.78
2023-05-03T22:40:55.428Z,100661.94
2023-05-03T22:43:22.244Z,100662.16
2023-05-03T22:45:49.121Z,100666.16
2023-05-03T22:48:15.961Z,100660.53
2023-05-03T22:50:46.268Z,100658.56
2023-05-03T22:53:13.205Z,100655.72
2023-05-03T22:55:40.509Z,100660.91
2023-05-03T22:58:07.352Z,100649.72
2023-05-03T23:00:34.196Z,100654.09
2023-05-03T23:03:01.545Z,100654.91
2023-05-03T23:05:28.621Z,100653.28
2023-05-03T23:07:55.446Z,100654.50
2023-05-03T23:10:22.261Z,100651.25
2023-05-03T23:12:50.147Z,100650.25
2023-05-03T23:15:17.498Z,100651.25
2023-05-03T23:17:46.580Z,100646.25
2023-05-03T23:20:13.724Z,100655.84
2023-05-03T23:22:41.089Z,100645.66
2023-05-03T23:25:09.270Z,100645.22
2023-05-03T23:27:36.467Z,100650.78
2023-05-03T23:30:03.912Z,100648.38
2023-05-03T23:32:31.896Z,100644.34
2023-05-03T23:34:58.909Z,100649.72
2023-05-03T23:37:25.924Z,100643.31
2023-05-03T23:39:53.617Z,100642.84
2023-05-03T23:42:20.922Z,100645.84
2023-05-03T23:44:54.411Z,100643.19
2023-05-03T23:47:23.030Z,100640.97
2023-05-03T23:49:49.997Z,100635.69
2023-05-03T23:52:20.968Z,100641.28
2023-05-03T23:54:47.883Z,100636.38
2023-05-03T23:57:14.764Z,100638.97
2023-05-03T23:59:41.548Z,100638.53
